Cottingham, United Kingdom
Current Conditions -  °F | °C
As of 3:50 PM on Wednesday 28 Jan 2015 (Local Time) from EGXV Reporting Station
Scattered Clouds Scattered Clouds  
Wind Chill: 27°   Ceiling: Unl
Heat Index: 37°   Visibility: 6mi
Dew Point: 32°   Wind: 22mph
Humidity: 81%   Direction: 270°W
Pressure: 29.32"   Gusts: 33mph
Location:  53.78°N, 0.41°W
Report Text: EGXV 281550Z AUTO 27019G29KT 9999 FEW017/// SCT120/// 03/M00 Q0993 RERA
Loading
Personal Weather Stations






























Interactive Weather Map New forecast layout! Learn more

10-Day Weather Forecast

Advertisements
Track Severe Weather on mobile